Painted Rocks, Iowa
Current Conditions -  °F | °C
As of 12:35 AM on Wednesday 28 Jan 2015 (Local Time) from KPEA Reporting Station
Haze Haze  
Wind Chill: 19°   Ceiling: 700
Heat Index: 29°   Visibility: 3mi
Dew Point: 28°   Wind: 14mph
Humidity: 94%   Direction: 140°SE
Pressure: 30.16"   Gusts: 17mph
Location:  41.4592°N, 93.0401°W
Report Text: KPEA 280635Z AUTO 14012G15KT 3SM BR OVC007 M01/M02 A3016 RMK AO2 T10151024
Loading
Personal Weather Stations






























Interactive Weather Map New forecast layout! Learn more

10-Day Weather Forecast

Advertisements
Track Severe Weather on mobile